createdAt,value
2023-12-16T00:00:41.401Z,1.57
2023-12-16T00:03:50.596Z,1.58
2023-12-16T00:07:05.656Z,1.57
2023-12-16T00:10:08.273Z,1.61
2023-12-16T00:13:30.547Z,1.51
2023-12-16T00:16:32.523Z,1.20
2023-12-16T00:19:47.648Z,0.98
2023-12-16T00:22:56.402Z,0.73
2023-12-16T00:26:11.547Z,0.58
2023-12-16T00:29:26.586Z,0.55
2023-12-16T00:32:35.537Z,0.61
2023-12-16T00:35:50.529Z,0.70
2023-12-16T00:38:59.731Z,0.68
2023-12-16T00:42:08.546Z,0.61
2023-12-16T00:45:20.217Z,0.56
2023-12-16T00:48:36.591Z,0.44
2023-12-16T00:51:45.553Z,0.33
2023-12-16T00:54:54.401Z,0.40
2023-12-16T00:58:02.588Z,0.35
2023-12-16T01:01:14.525Z,0.33
2023-12-16T01:04:23.622Z,0.22
2023-12-16T01:07:32.098Z,0.10
2023-12-16T01:10:40.576Z,0.01
2023-12-16T01:13:55.548Z,-0.03
2023-12-16T01:16:57.748Z,-0.08
2023-12-16T01:20:13.572Z,-0.08
2023-12-16T01:23:21.528Z,-0.14
2023-12-16T01:26:36.541Z,-0.17
2023-12-16T01:29:51.538Z,-0.18
2023-12-16T01:32:54.446Z,-0.18
2023-12-16T01:36:10.524Z,-0.19
2023-12-16T01:39:12.399Z,-0.20
2023-12-16T01:42:27.504Z,-0.17
2023-12-16T01:45:42.561Z,-0.05
2023-12-16T01:48:51.633Z,0.00
2023-12-16T01:52:00.599Z,0.02
2023-12-16T01:55:11.159Z,0.13
2023-12-16T01:58:19.635Z,0.22
2023-12-16T02:01:28.767Z,0.17
2023-12-16T02:04:38.674Z,0.10
2023-12-16T02:07:53.589Z,0.06
2023-12-16T02:10:55.559Z,0.14
2023-12-16T02:14:10.533Z,0.14
2023-12-16T02:17:19.134Z,0.06
2023-12-16T02:20:33.515Z,-0.02
2023-12-16T02:23:45.536Z,-0.15
2023-12-16T02:27:00.534Z,-0.24
2023-12-16T02:30:10.029Z,-0.35
2023-12-16T02:33:24.591Z,-0.39
2023-12-16T02:36:39.528Z,-0.40
2023-12-16T02:39:48.380Z,-0.38
2023-12-16T02:42:57.545Z,-0.45
2023-12-16T02:46:06.624Z,-0.47
2023-12-16T02:49:21.662Z,-0.55
2023-12-16T02:52:30.145Z,-0.59
2023-12-16T02:55:38.529Z,-0.62
2023-12-16T02:58:47.648Z,-0.60
2023-12-16T03:01:56.586Z,-0.55
2023-12-16T03:05:11.570Z,-0.48
2023-12-16T03:08:13.726Z,-0.32
2023-12-16T03:11:28.521Z,-0.12
2023-12-16T03:14:50.535Z,0.02
2023-12-16T03:18:05.557Z,0.09
2023-12-16T03:21:07.943Z,0.20
2023-12-16T03:24:22.530Z,0.22
2023-12-16T03:27:31.084Z,0.06
2023-12-16T03:30:39.574Z,-0.21
2023-12-16T03:33:48.308Z,-0.39
2023-12-16T03:36:56.590Z,-0.51
2023-12-16T03:40:05.899Z,-0.58
2023-12-16T03:43:14.543Z,-0.63
2023-12-16T03:46:23.383Z,-0.63
2023-12-16T03:49:38.574Z,-0.62
2023-12-16T03:52:40.797Z,-0.56
2023-12-16T03:55:55.537Z,-0.59
2023-12-16T03:59:03.523Z,-0.60
2023-12-16T04:02:18.517Z,-0.71
2023-12-16T04:05:27.349Z,-0.91
2023-12-16T04:08:35.527Z,-1.03
2023-12-16T04:11:50.388Z,-1.05
2023-12-16T04:15:12.539Z,-1.07
2023-12-16T04:18:21.545Z,-1.02
2023-12-16T04:21:36.499Z,-0.99
2023-12-16T04:24:46.073Z,-0.77
2023-12-16T04:27:54.546Z,-0.66
2023-12-16T04:31:09.632Z,-0.67
2023-12-16T04:34:11.621Z,-0.73
2023-12-16T04:37:26.662Z,-0.80
2023-12-16T04:40:35.338Z,-0.92
2023-12-16T04:43:50.493Z,-0.94
2023-12-16T04:46:52.660Z,-0.91
2023-12-16T04:50:14.518Z,-0.99
2023-12-16T04:53:16.628Z,-1.07
2023-12-16T04:56:31.515Z,-1.06
2023-12-16T04:59:40.348Z,-1.20
2023-12-16T05:02:55.496Z,-1.13
2023-12-16T05:06:11.545Z,-1.05
2023-12-16T05:09:20.491Z,-0.86
2023-12-16T05:12:36.510Z,-0.78
2023-12-16T05:15:58.531Z,-0.71
2023-12-16T05:19:13.614Z,-0.76
2023-12-16T05:22:15.926Z,-0.84
2023-12-16T05:25:30.548Z,-1.00
2023-12-16T05:28:39.127Z,-1.05
2023-12-16T05:31:47.546Z,-1.07
2023-12-16T05:34:57.467Z,-1.14
2023-12-16T05:38:06.528Z,-1.08
2023-12-16T05:41:21.554Z,-1.07
2023-12-16T05:44:30.272Z,-1.16
2023-12-16T05:47:45.568Z,-1.21
2023-12-16T05:51:00.526Z,-1.31
2023-12-16T05:54:15.499Z,-1.33
2023-12-16T05:57:30.508Z,-1.24
2023-12-16T06:00:39.576Z,-1.22
2023-12-16T06:03:48.382Z,-1.22
2023-12-16T06:06:57.571Z,-1.29
2023-12-16T06:10:08.105Z,-1.32
2023-12-16T06:13:23.541Z,-1.42
2023-12-16T06:16:32.331Z,-1.46
2023-12-16T06:19:47.558Z,-1.46
2023-12-16T06:22:56.497Z,-1.43
2023-12-16T06:26:11.514Z,-1.55
2023-12-16T06:29:26.571Z,-1.49
2023-12-16T06:32:41.559Z,-1.47
2023-12-16T06:35:51.498Z,-1.55
2023-12-16T06:39:00.528Z,-1.51
2023-12-16T06:42:09.333Z,-1.46
2023-12-16T06:45:17.505Z,-1.37
2023-12-16T06:48:26.384Z,-1.40
2023-12-16T06:51:35.500Z,-1.47
2023-12-16T06:54:44.370Z,-1.40
2023-12-16T06:57:53.516Z,-1.44
2023-12-16T07:01:02.066Z,-1.33
2023-12-16T07:04:10.605Z,-1.33
2023-12-16T07:07:25.562Z,-1.31
2023-12-16T07:10:27.568Z,-1.29
2023-12-16T07:13:49.491Z,-1.36
2023-12-16T07:16:58.372Z,-1.32
2023-12-16T07:20:15.518Z,-1.27
2023-12-16T07:23:30.474Z,-1.25
2023-12-16T07:26:45.520Z,-1.08
2023-12-16T07:29:54.326Z,-1.04
2023-12-16T07:33:09.562Z,-0.95
2023-12-16T07:36:18.489Z,-0.90
2023-12-16T07:39:33.499Z,-0.90
2023-12-16T07:42:48.533Z,-0.83
2023-12-16T07:46:03.517Z,-0.81
2023-12-16T07:49:05.846Z,-0.74
2023-12-16T07:52:20.514Z,-0.67
2023-12-16T07:55:35.514Z,-0.60
2023-12-16T07:58:37.689Z,-0.63
2023-12-16T08:01:57.575Z,-0.51
2023-12-16T08:05:13.488Z,-0.37
2023-12-16T08:08:21.508Z,-0.26
2023-12-16T08:11:36.487Z,-0.20
2023-12-16T08:14:58.545Z,-0.10
2023-12-16T08:18:00.543Z,0.10
2023-12-16T08:21:15.490Z,0.21
2023-12-16T08:24:30.557Z,0.36
2023-12-16T08:27:39.760Z,0.49
2023-12-16T08:30:54.561Z,0.78
2023-12-16T08:33:56.818Z,0.95
2023-12-16T08:37:11.598Z,1.24
2023-12-16T08:40:20.064Z,1.50
2023-12-16T08:43:28.586Z,1.74
2023-12-16T08:46:48.499Z,1.91
2023-12-16T08:49:57.623Z,2.12
2023-12-16T08:53:10.349Z,2.36
2023-12-16T08:56:19.611Z,2.52
2023-12-16T08:59:28.359Z,2.75
2023-12-16T09:02:43.517Z,3.05
2023-12-16T09:06:00.605Z,3.23
2023-12-16T09:09:15.496Z,3.68
2023-12-16T09:12:24.517Z,3.95
2023-12-16T09:15:46.492Z,4.20
2023-12-16T09:18:55.406Z,4.48
2023-12-16T09:22:04.560Z,4.58
2023-12-16T09:25:13.396Z,4.83
2023-12-16T09:28:23.570Z,4.99
2023-12-16T09:31:32.251Z,5.02
2023-12-16T09:34:47.580Z,5.31
2023-12-16T09:37:56.491Z,5.44
2023-12-16T09:41:05.802Z,5.69
2023-12-16T09:44:16.482Z,5.82
2023-12-16T09:47:32.516Z,5.88
2023-12-16T09:50:42.641Z,6.00
2023-12-16T09:53:51.486Z,6.20
2023-12-16T09:57:01.481Z,6.38
2023-12-16T10:00:17.494Z,6.31
2023-12-16T10:03:26.657Z,6.63
2023-12-16T10:06:42.518Z,6.76
2023-12-16T10:09:57.522Z,6.81
2023-12-16T10:13:19.593Z,6.94
2023-12-16T10:16:34.586Z,7.10
2023-12-16T10:19:44.938Z,7.07
2023-12-16T10:22:53.477Z,7.00
2023-12-16T10:26:08.488Z,6.84
2023-12-16T10:29:12.044Z,6.81
2023-12-16T10:32:26.838Z,6.53
2023-12-16T10:35:35.323Z,6.73
2023-12-16T10:38:43.512Z,6.80
2023-12-16T10:41:58.485Z,6.88
2023-12-16T10:45:07.498Z,6.88
2023-12-16T10:48:28.652Z,6.85
2023-12-16T10:51:33.378Z,6.96
2023-12-16T10:54:51.571Z,6.80
2023-12-16T10:58:24.532Z,6.79
2023-12-16T11:01:46.578Z,6.78
2023-12-16T11:05:12.499Z,6.83
2023-12-16T11:08:24.961Z,6.78
2023-12-16T11:11:41.526Z,6.75
2023-12-16T11:14:56.914Z,6.70
2023-12-16T11:18:05.518Z,6.74
2023-12-16T11:21:19.060Z,6.74
2023-12-16T11:24:27.483Z,6.59
2023-12-16T11:27:42.475Z,6.52
2023-12-16T11:30:52.600Z,6.50
2023-12-16T11:34:07.565Z,6.44
2023-12-16T11:37:35.138Z,6.45
2023-12-16T11:40:49.522Z,6.41
2023-12-16T11:43:58.047Z,6.41
2023-12-16T11:47:06.473Z,6.38
2023-12-16T11:50:21.505Z,6.38
2023-12-16T11:53:37.482Z,6.40
2023-12-16T11:56:46.076Z,6.43
2023-12-16T11:59:55.591Z,6.44
2023-12-16T12:03:11.527Z,6.39
2023-12-16T12:06:26.560Z,6.32
2023-12-16T12:09:28.515Z,6.28
2023-12-16T12:12:43.503Z,6.26
2023-12-16T12:16:05.518Z,6.30
2023-12-16T12:19:07.789Z,6.33
2023-12-16T12:22:22.591Z,6.36
2023-12-16T12:25:31.505Z,6.34
2023-12-16T12:28:40.384Z,6.28
2023-12-16T12:31:55.507Z,6.24
2023-12-16T12:35:06.745Z,6.33
2023-12-16T12:38:27.524Z,6.39
2023-12-16T12:41:36.371Z,6.35
2023-12-16T12:44:45.520Z,6.38
2023-12-16T12:47:55.658Z,6.35
2023-12-16T12:51:15.487Z,6.34
2023-12-16T12:54:30.499Z,6.27
2023-12-16T13:01:16.583Z,6.23
2023-12-16T13:04:18.919Z,6.20
2023-12-16T13:07:34.541Z,6.17
2023-12-16T13:10:43.716Z,6.04
2023-12-16T13:13:58.505Z,6.12
2023-12-16T13:17:13.764Z,6.15
2023-12-16T13:20:28.506Z,6.12
2023-12-16T13:23:43.502Z,6.07
2023-12-16T13:26:58.504Z,5.99
2023-12-16T13:30:07.578Z,5.98
2023-12-16T13:33:16.400Z,5.91
2023-12-16T13:36:48.976Z,5.95
2023-12-16T13:40:08.493Z,5.95
2023-12-16T13:43:17.085Z,5.93
2023-12-16T13:46:32.546Z,5.93
2023-12-16T13:49:42.537Z,5.87
2023-12-16T13:52:57.477Z,5.82
2023-12-16T13:56:06.878Z,5.78
2023-12-16T13:59:21.515Z,5.72
2023-12-16T14:02:23.683Z,5.70
2023-12-16T14:05:38.646Z,5.69
2023-12-16T14:08:47.525Z,5.67
2023-12-16T14:11:56.346Z,5.63
2023-12-16T14:15:11.506Z,5.59
2023-12-16T14:18:26.614Z,5.56
2023-12-16T14:21:35.511Z,5.51
2023-12-16T14:24:50.732Z,5.48
2023-12-16T14:27:59.147Z,5.43
2023-12-16T14:31:07.516Z,5.40
2023-12-16T14:34:23.698Z,5.43
2023-12-16T14:37:38.705Z,5.34
2023-12-16T14:40:47.369Z,5.25
2023-12-16T14:44:02.498Z,5.15
2023-12-16T14:47:17.477Z,5.12
2023-12-16T14:50:32.528Z,5.07
2023-12-16T14:53:41.339Z,5.04
2023-12-16T14:56:56.515Z,4.97
2023-12-16T14:59:58.695Z,4.84
2023-12-16T15:03:16.573Z,4.68
2023-12-16T15:06:30.517Z,4.49
2023-12-16T15:09:46.485Z,4.38
2023-12-16T15:12:55.532Z,4.22
2023-12-16T15:16:20.380Z,4.06
2023-12-16T15:19:23.312Z,4.07
2023-12-16T15:22:45.470Z,4.11
2023-12-16T15:25:54.278Z,4.03
2023-12-16T15:29:02.490Z,3.99
2023-12-16T15:32:17.496Z,3.98
2023-12-16T15:35:19.813Z,3.94
2023-12-16T15:38:34.610Z,3.90
2023-12-16T15:41:36.783Z,3.73
2023-12-16T15:44:51.536Z,3.64
2023-12-16T15:48:00.668Z,3.53
2023-12-16T15:51:09.707Z,3.46
2023-12-16T15:54:25.477Z,3.36
2023-12-16T15:57:27.662Z,3.20
2023-12-16T16:00:42.495Z,3.10
2023-12-16T16:03:51.569Z,2.95
2023-12-16T16:07:00.568Z,2.85
2023-12-16T16:10:15.495Z,2.77
2023-12-16T16:13:17.384Z,2.72
2023-12-16T16:16:39.483Z,2.63
2023-12-16T16:19:48.701Z,2.49
2023-12-16T16:22:57.063Z,2.44
2023-12-16T16:26:11.484Z,2.33
2023-12-16T16:29:20.948Z,2.29
2023-12-16T16:32:35.660Z,2.19
2023-12-16T16:35:44.451Z,2.11
2023-12-16T16:38:53.490Z,2.01
2023-12-16T16:42:02.386Z,1.99
2023-12-16T16:45:18.517Z,1.92
2023-12-16T16:48:26.812Z,1.93
2023-12-16T16:51:41.513Z,1.91
2023-12-16T16:54:56.523Z,1.83
2023-12-16T16:58:05.073Z,1.79
2023-12-16T17:01:19.555Z,1.76
2023-12-16T17:04:22.163Z,1.78
2023-12-16T17:07:41.753Z,1.75
2023-12-16T17:10:50.040Z,1.68
2023-12-16T17:14:04.560Z,1.69
2023-12-16T17:17:26.522Z,1.63
2023-12-16T17:20:35.560Z,1.60
2023-12-16T17:23:44.070Z,1.55
2023-12-16T17:26:58.522Z,1.40
2023-12-16T17:30:00.785Z,1.31
2023-12-16T17:33:16.686Z,1.37
2023-12-16T17:36:19.045Z,1.36
2023-12-16T17:39:33.509Z,1.30
2023-12-16T17:42:35.680Z,1.28
2023-12-16T17:45:50.537Z,1.22
2023-12-16T17:49:05.650Z,1.27
2023-12-16T17:52:14.387Z,1.27
2023-12-16T17:55:29.494Z,1.25
2023-12-16T17:58:34.661Z,1.38
2023-12-16T18:01:51.543Z,1.62
2023-12-16T18:05:00.334Z,1.56
2023-12-16T18:08:09.475Z,1.54
2023-12-16T18:11:25.498Z,1.53
2023-12-16T18:14:40.826Z,1.45
2023-12-16T18:17:49.549Z,1.37
2023-12-16T18:21:05.534Z,1.27
2023-12-16T18:24:07.747Z,1.13
2023-12-16T18:27:22.564Z,1.08
2023-12-16T18:30:37.581Z,1.09
2023-12-16T18:33:39.861Z,1.04
2023-12-16T18:36:54.497Z,0.96
2023-12-16T18:40:09.515Z,0.98
2023-12-16T18:43:18.033Z,0.95
2023-12-16T18:46:39.498Z,0.96
2023-12-16T18:49:48.577Z,0.94
2023-12-16T18:52:57.115Z,0.93
2023-12-16T18:56:12.520Z,0.90
2023-12-16T18:59:14.520Z,1.07
2023-12-16T19:02:29.502Z,1.20
2023-12-16T19:05:31.651Z,1.25
2023-12-16T19:08:53.547Z,1.29
2023-12-16T19:12:02.442Z,1.11
2023-12-16T19:15:17.579Z,1.07
2023-12-16T19:18:26.567Z,1.10
2023-12-16T19:21:35.524Z,1.06
2023-12-16T19:24:44.071Z,1.04
2023-12-16T19:27:58.484Z,0.98
2023-12-16T19:31:06.542Z,0.99
2023-12-16T19:34:21.552Z,0.95
2023-12-16T19:37:36.673Z,0.91
2023-12-16T19:40:45.340Z,0.81
2023-12-16T19:43:54.491Z,0.81
2023-12-16T19:47:10.579Z,0.80
2023-12-16T19:50:25.475Z,0.75
2023-12-16T19:53:34.480Z,0.73
2023-12-16T19:56:43.617Z,0.66
2023-12-16T19:59:58.494Z,0.64
2023-12-16T20:03:07.546Z,0.63
2023-12-16T20:06:22.554Z,0.57
2023-12-16T20:09:37.479Z,0.60
2023-12-16T20:12:46.286Z,0.59
2023-12-16T20:16:08.484Z,0.60
2023-12-16T20:19:23.583Z,0.56
2023-12-16T20:22:38.482Z,0.54
2023-12-16T20:25:47.378Z,0.53
2023-12-16T20:29:02.458Z,0.55
2023-12-16T20:32:04.945Z,0.53
2023-12-16T20:35:19.462Z,0.53
2023-12-16T20:38:34.487Z,0.48
2023-12-16T20:41:49.499Z,0.48
2023-12-16T20:45:04.635Z,0.38
2023-12-16T20:48:13.475Z,0.38
2023-12-16T20:51:22.469Z,0.40
2023-12-16T20:54:37.472Z,0.38
2023-12-16T20:57:46.047Z,0.36
2023-12-16T21:00:54.543Z,0.38
2023-12-16T21:04:03.422Z,0.35
2023-12-16T21:07:18.501Z,0.37
2023-12-16T21:10:20.522Z,0.33
2023-12-16T21:13:35.471Z,0.36
2023-12-16T21:16:50.474Z,0.36
2023-12-16T21:19:59.583Z,0.33
2023-12-16T21:23:14.498Z,0.32
2023-12-16T21:26:16.405Z,0.32
2023-12-16T21:29:31.456Z,0.25
2023-12-16T21:32:40.552Z,0.29
2023-12-16T21:35:49.499Z,0.25
2023-12-16T21:39:04.528Z,0.20
2023-12-16T21:42:13.532Z,0.22
2023-12-16T21:45:22.359Z,0.15
2023-12-16T21:48:31.660Z,0.13
2023-12-16T21:51:41.011Z,0.13
2023-12-16T21:54:49.473Z,0.14
2023-12-16T21:58:04.474Z,0.05
2023-12-16T22:01:23.600Z,0.06
2023-12-16T22:04:32.463Z,0.01
2023-12-16T22:07:41.506Z,-0.06
2023-12-16T22:10:56.488Z,-0.01
2023-12-16T22:13:58.640Z,0.02
2023-12-16T22:17:20.470Z,0.00
2023-12-16T22:20:29.213Z,0.04
2023-12-16T22:23:44.493Z,0.15
2023-12-16T22:26:53.283Z,0.28
2023-12-16T22:30:08.606Z,0.32
2023-12-16T22:33:23.651Z,0.41
2023-12-16T22:36:38.467Z,0.57
2023-12-16T22:39:53.481Z,0.68
2023-12-16T22:43:01.469Z,0.76
2023-12-16T22:46:10.025Z,0.79
2023-12-16T22:49:18.695Z,0.71
2023-12-16T22:52:33.469Z,0.84
2023-12-16T22:55:48.464Z,0.87
2023-12-16T22:58:56.981Z,0.87
2023-12-16T23:02:11.484Z,0.81
2023-12-16T23:05:13.663Z,0.78
2023-12-16T23:08:28.479Z,0.79
2023-12-16T23:11:30.718Z,0.82
2023-12-16T23:14:45.524Z,0.77
2023-12-16T23:18:00.542Z,0.73
2023-12-16T23:21:09.342Z,0.67
2023-12-16T23:24:17.509Z,0.63
2023-12-16T23:27:26.309Z,0.58
2023-12-16T23:30:34.522Z,0.55
2023-12-16T23:33:50.723Z,0.48
2023-12-16T23:36:59.118Z,0.50
2023-12-16T23:40:07.456Z,0.50
2023-12-16T23:43:23.453Z,0.46
2023-12-16T23:46:32.484Z,0.45
2023-12-16T23:49:41.401Z,0.40
2023-12-16T23:52:49.473Z,0.38
2023-12-16T23:56:04.493Z,0.37
2023-12-16T23:59:13.380Z,0.30
